Aeroporto :
LOGIN :

Iscrizione | Disclaimer

   EN    FR    IT 

 










Sommario :    VFR   VFR Marginale   IFR   IFR Intensivo   IFR Molto Intensivo
Visibilità : 
Base nubi : 
>= 8 km
>= 3000ft
5 / 8 km
1000 / 3000 ft
1500m / 5 km
500 / 1000 ft
800 / 1500m
200 / 500 ft
< 800m
< 200 ft
Simboli :   Temporali  Nebbia  Neve Forte  Precipitazioni Forti  Vento > 20 kt
SIGMETs :   Varie  Temporali  Ghiacco  Turbolenza  Onda orograficha  Ceneri Vulcaniche






- Altitudine del aeroporto : 0 ft


ENSL - Sleipner A Platform

ULTIMO METAR :
  • 180420Z AUTO 26039KT 9999NDV FEW030/// SCT045/// 07/01 Q0995 W04/S5

METARs OBSOLETI :
  • 180350Z AUTO 27042KT 9999NDV FEW032/// 07/00 Q0994 W04/S5
  • 180320Z AUTO 27041KT 9999NDV BKN029/// 07/00 Q0994 W04/S5
  • 180250Z AUTO 26043KT 9999NDV SCT026/// 07/01 Q0994 W04/S5
  • 180220Z AUTO 27040KT 9999NDV SCT022/// 07/03 Q0994 W04/S5
  • 180150Z AUTO 27043KT 9999NDV SCT020/// 07/02 Q0993 W04/S5

Previsioni scadute.



MetMap, La meteo Aeronautica in un colpo d'occhio ! - Copyright ORBIFLY Dicembre 2007 - Disclaimer

ORBIFLY MET'MAP TEAM :

Programmazione e sviluppo : Alexandra Zaïnal
Concezione : Baudouin d'Aumeries
Aiuto per la programmazione : Marc-Olivier Méhu
Supporto tecnico e logistico : Manuel Goepfert
Aiuto per la traduzione : Arnaldo La Scala

Contatto : metmap@orbifly.com




FONTI E CREDITI :

   NOAA